Main page
METAR-TAF:

METAR-TAF

Airports :

Marabá Airport

Marabá, Pará, Brazil

latitude: 05-21S, longitude: 049-09W, elevation: 95 m

Current weather observation

The report was made 12 minutes ago, at 14:00 UTC
Wind 6 kt from the North
Temperature 25°C
Humidity 100%
Pressure 1013 hPa
Visibility: 5000 m
Broken clouds at a height of 900 ft
light rain

METAR: SBMA 201400Z 35006KT 5000 -RA BKN009 25/25 Q1013 RERA

Time: 11:12 (14:12 UTC)

Forecast

The report was made 5 hours and 12 minutes ago, at 09:00 UTC
Forecast valid from 20 at 12 UTC to 20 at 24 UTC
Wind 5 kt from the Northwest
Visibility 10 km or more
Scattered clouds at a height of 1200 ft
Becoming
from 20 at 15 UTC to 20 at 17 UTC
Broken clouds at a height of 2000 ft
Few clouds at a height of 2500 ft, Towering cumulus.
Becoming
from 20 at 21 UTC to 20 at 23 UTC
Wind kt from the North
Few clouds at a height of 2000 ft

TAF: SBMA 200900Z 2012/2024 31005KT 9999 SCT012 TN27/2012Z TX32/2017Z BECMG 2015/2017 BKN020 FEW025TCU BECMG 2021/2023 00000KT FEW020 RMK PHI

Weather observations and forecasts of more than 4000 airports (METAR and TAF reports).

The available stations are represented by yellow and red dots on the map.

Hover mouse over dot to see the name of the station.

Then click to see weather observations and forecasts.

To change the map : click on the green buttons with a black cross to zoom in, on the green button with a dash to zoom out, or on the green arrows for adjacent maps.


METAR-TAF: